sensor_id;sensor_type;location;lat;lon;timestamp;pressure;altitude;pressure_sealevel;temperature;humidity
48622;BME280;34421;48.944;9.460;2023-03-19T00:02:20;98167.22;;;10.56;63.69
48622;BME280;34421;48.944;9.460;2023-03-19T00:04:46;98173.34;;;10.63;63.58
48622;BME280;34421;48.944;9.460;2023-03-19T00:07:12;98172.09;;;10.65;64.53
48622;BME280;34421;48.944;9.460;2023-03-19T00:09:37;98170.44;;;10.64;63.37
48622;BME280;34421;48.944;9.460;2023-03-19T00:12:02;98168.81;;;10.63;64.56
48622;BME280;34421;48.944;9.460;2023-03-19T00:14:28;98174.94;;;10.64;64.70
48622;BME280;34421;48.944;9.460;2023-03-19T00:16:53;98167.19;;;10.62;63.70
48622;BME280;34421;48.944;9.460;2023-03-19T00:19:18;98167.63;;;10.59;64.25
48622;BME280;34421;48.944;9.460;2023-03-19T00:21:43;98178.06;;;10.61;64.86
48622;BME280;34421;48.944;9.460;2023-03-19T00:24:09;98180.94;;;10.59;64.60
48622;BME280;34421;48.944;9.460;2023-03-19T00:26:34;98179.28;;;10.58;64.89
48622;BME280;34421;48.944;9.460;2023-03-19T00:29:00;98174.63;;;10.54;65.05
48622;BME280;34421;48.944;9.460;2023-03-19T00:31:25;98180.16;;;10.52;64.46
48622;BME280;34421;48.944;9.460;2023-03-19T00:33:51;98182.25;;;10.50;64.37
48622;BME280;34421;48.944;9.460;2023-03-19T00:36:16;98180.41;;;10.51;64.14
48622;BME280;34421;48.944;9.460;2023-03-19T00:38:42;98183.63;;;10.53;64.16
48622;BME280;34421;48.944;9.460;2023-03-19T00:41:08;98190.19;;;10.57;65.32
48622;BME280;34421;48.944;9.460;2023-03-19T00:43:33;98188.94;;;10.59;64.93
48622;BME280;34421;48.944;9.460;2023-03-19T00:45:59;98180.72;;;10.61;65.14
48622;BME280;34421;48.944;9.460;2023-03-19T00:48:24;98188.50;;;10.62;64.24
48622;BME280;34421;48.944;9.460;2023-03-19T00:50:50;98184.78;;;10.63;64.54
48622;BME280;34421;48.944;9.460;2023-03-19T00:53:15;98190.50;;;10.67;64.62
48622;BME280;34421;48.944;9.460;2023-03-19T00:55:41;98186.41;;;10.64;64.75
48622;BME280;34421;48.944;9.460;2023-03-19T00:58:06;98198.09;;;10.63;65.60
48622;BME280;34421;48.944;9.460;2023-03-19T01:00:32;98188.25;;;10.64;65.51
48622;BME280;34421;48.944;9.460;2023-03-19T01:02:58;98184.59;;;10.65;64.74
48622;BME280;34421;48.944;9.460;2023-03-19T01:05:23;98181.88;;;10.71;65.64
48622;BME280;34421;48.944;9.460;2023-03-19T01:07:49;98185.94;;;10.74;65.25
48622;BME280;34421;48.944;9.460;2023-03-19T01:10:16;98188.38;;;10.76;64.93
48622;BME280;34421;48.944;9.460;2023-03-19T01:12:41;98190.84;;;10.77;65.61
48622;BME280;34421;48.944;9.460;2023-03-19T01:15:06;98183.66;;;10.78;64.39
48622;BME280;34421;48.944;9.460;2023-03-19T01:17:32;98185.88;;;10.81;64.22
48622;BME280;34421;48.944;9.460;2023-03-19T01:19:57;98186.25;;;10.84;65.17
48622;BME280;34421;48.944;9.460;2023-03-19T01:22:23;98187.06;;;10.85;65.06
48622;BME280;34421;48.944;9.460;2023-03-19T01:24:48;98190.16;;;10.82;64.67
48622;BME280;34421;48.944;9.460;2023-03-19T01:27:13;98184.53;;;10.71;65.15
48622;BME280;34421;48.944;9.460;2023-03-19T01:29:38;98186.81;;;10.68;64.61
48622;BME280;34421;48.944;9.460;2023-03-19T01:32:04;98192.16;;;10.61;64.44
48622;BME280;34421;48.944;9.460;2023-03-19T01:34:30;98186.09;;;10.54;65.27
48622;BME280;34421;48.944;9.460;2023-03-19T01:36:55;98185.34;;;10.47;64.98
48622;BME280;34421;48.944;9.460;2023-03-19T01:39:20;98181.63;;;10.48;64.86
48622;BME280;34421;48.944;9.460;2023-03-19T01:41:45;98184.25;;;10.55;65.63
48622;BME280;34421;48.944;9.460;2023-03-19T01:44:24;98185.66;;;10.57;65.66
48622;BME280;34421;48.944;9.460;2023-03-19T01:46:50;98185.84;;;10.62;65.92
48622;BME280;34421;48.944;9.460;2023-03-19T01:49:15;98199.09;;;10.69;65.28
48622;BME280;34421;48.944;9.460;2023-03-19T01:51:42;98201.69;;;10.76;66.55
48622;BME280;34421;48.944;9.460;2023-03-19T01:54:10;98201.03;;;10.80;66.45
48622;BME280;34421;48.944;9.460;2023-03-19T01:56:37;98201.41;;;10.84;66.35
48622;BME280;34421;48.944;9.460;2023-03-19T01:59:08;98208.97;;;10.87;66.59
48622;BME280;34421;48.944;9.460;2023-03-19T02:01:35;98212.06;;;10.84;66.25
48622;BME280;34421;48.944;9.460;2023-03-19T02:04:02;98213.69;;;10.85;66.54
48622;BME280;34421;48.944;9.460;2023-03-19T02:06:27;98214.06;;;10.88;66.40
48622;BME280;34421;48.944;9.460;2023-03-19T02:08:54;98216.53;;;10.90;66.79
48622;BME280;34421;48.944;9.460;2023-03-19T02:11:20;98229.41;;;10.93;65.88
48622;BME280;34421;48.944;9.460;2023-03-19T02:13:45;98232.28;;;10.91;65.42
48622;BME280;34421;48.944;9.460;2023-03-19T02:16:11;98237.59;;;10.91;66.33
48622;BME280;34421;48.944;9.460;2023-03-19T02:18:37;98234.13;;;10.91;65.95
48622;BME280;34421;48.944;9.460;2023-03-19T02:21:08;98234.28;;;10.96;65.99
48622;BME280;34421;48.944;9.460;2023-03-19T02:26:18;98230.38;;;10.99;65.40
48622;BME280;34421;48.944;9.460;2023-03-19T02:28:45;98265.81;;;10.99;65.25
48622;BME280;34421;48.944;9.460;2023-03-19T02:31:11;98259.94;;;10.90;66.07
48622;BME280;34421;48.944;9.460;2023-03-19T02:33:36;98257.97;;;10.86;65.83
48622;BME280;34421;48.944;9.460;2023-03-19T02:36:02;98253.06;;;10.83;67.09
48622;BME280;34421;48.944;9.460;2023-03-19T02:38:29;98262.88;;;10.82;66.45
48622;BME280;34421;48.944;9.460;2023-03-19T02:41:04;98263.72;;;10.83;66.62
48622;BME280;34421;48.944;9.460;2023-03-19T02:43:33;98265.78;;;10.81;65.81
48622;BME280;34421;48.944;9.460;2023-03-19T02:46:00;98273.16;;;10.79;66.93
48622;BME280;34421;48.944;9.460;2023-03-19T02:48:25;98280.72;;;10.82;66.37
48622;BME280;34421;48.944;9.460;2023-03-19T02:50:51;98276.38;;;10.87;65.92
48622;BME280;34421;48.944;9.460;2023-03-19T02:53:16;98279.63;;;10.89;65.73
48622;BME280;34421;48.944;9.460;2023-03-19T02:55:42;98277.56;;;10.91;67.01
48622;BME280;34421;48.944;9.460;2023-03-19T02:58:07;98266.09;;;10.91;66.79
48622;BME280;34421;48.944;9.460;2023-03-19T03:00:33;98279.84;;;10.88;66.46
48622;BME280;34421;48.944;9.460;2023-03-19T03:02:58;98277.63;;;10.85;66.20
48622;BME280;34421;48.944;9.460;2023-03-19T03:05:23;98282.94;;;10.85;66.99
48622;BME280;34421;48.944;9.460;2023-03-19T03:07:48;98279.25;;;10.86;67.07
48622;BME280;34421;48.944;9.460;2023-03-19T03:10:14;98276.38;;;10.87;66.54
48622;BME280;34421;48.944;9.460;2023-03-19T03:12:39;98269.63;;;10.85;67.43
48622;BME280;34421;48.944;9.460;2023-03-19T03:15:06;98276.81;;;10.84;66.26
48622;BME280;34421;48.944;9.460;2023-03-19T03:17:32;98285.22;;;10.81;67.55
48622;BME280;34421;48.944;9.460;2023-03-19T03:19:57;98292.88;;;10.71;67.47
48622;BME280;34421;48.944;9.460;2023-03-19T03:22:22;98294.28;;;10.73;68.07
48622;BME280;34421;48.944;9.460;2023-03-19T03:24:48;98294.88;;;10.76;68.01
48622;BME280;34421;48.944;9.460;2023-03-19T03:27:13;98290.59;;;10.75;67.33
48622;BME280;34421;48.944;9.460;2023-03-19T03:29:38;98291.41;;;10.75;68.12
48622;BME280;34421;48.944;9.460;2023-03-19T03:32:03;98292.84;;;10.78;68.13
48622;BME280;34421;48.944;9.460;2023-03-19T03:34:29;98290.19;;;10.78;67.43
48622;BME280;34421;48.944;9.460;2023-03-19T03:36:54;98297.72;;;10.81;67.57
48622;BME280;34421;48.944;9.460;2023-03-19T03:39:19;98303.88;;;10.81;68.10
48622;BME280;34421;48.944;9.460;2023-03-19T03:41:44;98287.44;;;10.84;68.01
48622;BME280;34421;48.944;9.460;2023-03-19T03:44:10;98297.06;;;10.85;69.13
48622;BME280;34421;48.944;9.460;2023-03-19T03:46:35;98299.41;;;10.75;68.30
48622;BME280;34421;48.944;9.460;2023-03-19T03:49:00;98296.41;;;10.65;68.87
48622;BME280;34421;48.944;9.460;2023-03-19T03:51:26;98297.66;;;10.62;69.77
48622;BME280;34421;48.944;9.460;2023-03-19T03:53:51;98294.56;;;10.65;69.41
48622;BME280;34421;48.944;9.460;2023-03-19T03:56:16;98285.09;;;10.69;70.06
48622;BME280;34421;48.944;9.460;2023-03-19T03:58:42;98284.47;;;10.74;69.50
48622;BME280;34421;48.944;9.460;2023-03-19T04:01:08;98278.03;;;10.82;69.09
48622;BME280;34421;48.944;9.460;2023-03-19T04:03:37;98273.50;;;10.89;70.11
48622;BME280;34421;48.944;9.460;2023-03-19T04:06:03;98273.06;;;10.92;69.25
48622;BME280;34421;48.944;9.460;2023-03-19T04:08:28;98268.91;;;10.96;70.22
48622;BME280;34421;48.944;9.460;2023-03-19T04:10:53;98266.88;;;10.98;70.00
48622;BME280;34421;48.944;9.460;2023-03-19T04:13:18;98271.38;;;10.98;70.33
48622;BME280;34421;48.944;9.460;2023-03-19T04:15:44;98280.81;;;10.93;69.79
48622;BME280;34421;48.944;9.460;2023-03-19T04:18:09;98275.31;;;10.88;69.85
48622;BME280;34421;48.944;9.460;2023-03-19T04:20:35;98268.19;;;10.82;70.40
48622;BME280;34421;48.944;9.460;2023-03-19T04:23:00;98273.31;;;10.84;70.16
48622;BME280;34421;48.944;9.460;2023-03-19T04:25:26;98280.66;;;10.88;71.25
48622;BME280;34421;48.944;9.460;2023-03-19T04:27:51;98278.41;;;10.92;71.21
48622;BME280;34421;48.944;9.460;2023-03-19T04:30:16;98278.97;;;10.94;71.45
48622;BME280;34421;48.944;9.460;2023-03-19T04:32:42;98285.34;;;10.93;70.11
48622;BME280;34421;48.944;9.460;2023-03-19T04:35:08;98297.25;;;10.90;71.53
48622;BME280;34421;48.944;9.460;2023-03-19T04:37:33;98292.16;;;10.89;70.37
48622;BME280;34421;48.944;9.460;2023-03-19T04:39:59;98292.16;;;10.89;71.55
48622;BME280;34421;48.944;9.460;2023-03-19T04:42:25;98278.41;;;10.92;70.63
48622;BME280;34421;48.944;9.460;2023-03-19T04:44:50;98295.19;;;10.92;70.61
48622;BME280;34421;48.944;9.460;2023-03-19T04:47:15;98290.66;;;10.93;71.46
48622;BME280;34421;48.944;9.460;2023-03-19T04:49:40;98300.13;;;10.89;71.33
48622;BME280;34421;48.944;9.460;2023-03-19T04:52:06;98295.25;;;10.86;70.69
48622;BME280;34421;48.944;9.460;2023-03-19T04:54:31;98306.72;;;10.86;70.91
48622;BME280;34421;48.944;9.460;2023-03-19T04:56:56;98300.16;;;10.82;71.60
48622;BME280;34421;48.944;9.460;2023-03-19T04:59:22;98314.91;;;10.85;72.09
48622;BME280;34421;48.944;9.460;2023-03-19T05:01:47;98314.69;;;10.86;70.73
48622;BME280;34421;48.944;9.460;2023-03-19T05:04:12;98310.38;;;10.85;71.06
48622;BME280;34421;48.944;9.460;2023-03-19T05:06:38;98312.47;;;10.83;71.35
48622;BME280;34421;48.944;9.460;2023-03-19T05:09:03;98313.28;;;10.84;70.70
48622;BME280;34421;48.944;9.460;2023-03-19T05:11:29;98321.03;;;10.85;70.52
48622;BME280;34421;48.944;9.460;2023-03-19T05:13:54;98317.78;;;10.83;71.22
48622;BME280;34421;48.944;9.460;2023-03-19T05:16:19;98316.13;;;10.82;70.37
48622;BME280;34421;48.944;9.460;2023-03-19T05:18:45;98316.38;;;10.81;71.42
48622;BME280;34421;48.944;9.460;2023-03-19T05:21:11;98324.78;;;10.78;70.54
48622;BME280;34421;48.944;9.460;2023-03-19T05:23:36;98325.22;;;10.75;70.32
48622;BME280;34421;48.944;9.460;2023-03-19T05:26:02;98326.66;;;10.70;70.93
48622;BME280;34421;48.944;9.460;2023-03-19T05:28:27;98329.75;;;10.67;70.86
48622;BME280;34421;48.944;9.460;2023-03-19T05:30:52;98333.03;;;10.69;71.29
48622;BME280;34421;48.944;9.460;2023-03-19T05:33:18;98335.50;;;10.71;70.75
48622;BME280;34421;48.944;9.460;2023-03-19T05:35:43;98337.94;;;10.72;70.32
48622;BME280;34421;48.944;9.460;2023-03-19T05:38:08;98332.59;;;10.72;71.30
48622;BME280;34421;48.944;9.460;2023-03-19T05:40:35;98348.81;;;10.71;70.38
48622;BME280;34421;48.944;9.460;2023-03-19T05:43:00;98339.16;;;10.70;71.48
48622;BME280;34421;48.944;9.460;2023-03-19T05:45:26;98343.88;;;10.75;70.65
48622;BME280;34421;48.944;9.460;2023-03-19T05:47:51;98337.50;;;10.76;70.38
48622;BME280;34421;48.944;9.460;2023-03-19T05:50:17;98339.13;;;10.77;71.10
48622;BME280;34421;48.944;9.460;2023-03-19T05:52:42;98337.06;;;10.79;70.63
48622;BME280;34421;48.944;9.460;2023-03-19T05:55:07;98334.63;;;10.77;70.29
48622;BME280;34421;48.944;9.460;2023-03-19T05:57:33;98340.34;;;10.81;71.54
48622;BME280;34421;48.944;9.460;2023-03-19T05:59:58;98342.78;;;10.82;71.71
48622;BME280;34421;48.944;9.460;2023-03-19T06:02:24;98339.53;;;10.80;71.28
48622;BME280;34421;48.944;9.460;2023-03-19T06:04:49;98349.75;;;10.83;71.68
48622;BME280;34421;48.944;9.460;2023-03-19T06:07:15;98353.66;;;10.81;71.41
48622;BME280;34421;48.944;9.460;2023-03-19T06:09:40;98354.69;;;10.80;71.94
48622;BME280;34421;48.944;9.460;2023-03-19T06:12:06;98346.47;;;10.81;72.21
48622;BME280;34421;48.944;9.460;2023-03-19T06:14:31;98355.47;;;10.87;71.80
48622;BME280;34421;48.944;9.460;2023-03-19T06:16:56;98362.59;;;10.93;71.48
48622;BME280;34421;48.944;9.460;2023-03-19T06:19:22;98367.28;;;10.98;71.95
48622;BME280;34421;48.944;9.460;2023-03-19T06:21:47;98364.38;;;10.99;71.47
48622;BME280;34421;48.944;9.460;2023-03-19T06:24:12;98370.91;;;11.03;71.84
48622;BME280;34421;48.944;9.460;2023-03-19T06:26:37;98371.75;;;11.04;72.32
48622;BME280;34421;48.944;9.460;2023-03-19T06:29:02;98368.41;;;11.08;71.50
48622;BME280;34421;48.944;9.460;2023-03-19T06:31:28;98371.88;;;11.15;72.26
48622;BME280;34421;48.944;9.460;2023-03-19T06:33:53;98377.34;;;11.21;71.68
48622;BME280;34421;48.944;9.460;2023-03-19T06:36:19;98378.13;;;11.28;71.68
48622;BME280;34421;48.944;9.460;2023-03-19T06:38:44;98384.88;;;11.30;72.39
48622;BME280;34421;48.944;9.460;2023-03-19T06:41:10;98374.75;;;11.39;72.18
48622;BME280;34421;48.944;9.460;2023-03-19T06:43:36;98376.94;;;11.49;71.09
48622;BME280;34421;48.944;9.460;2023-03-19T06:46:02;98378.88;;;11.60;71.10
48622;BME280;34421;48.944;9.460;2023-03-19T06:48:27;98376.53;;;11.70;72.12
48622;BME280;34421;48.944;9.460;2023-03-19T06:50:52;98376.47;;;11.77;72.08
48622;BME280;34421;48.944;9.460;2023-03-19T06:53:17;98378.44;;;11.88;71.18
48622;BME280;34421;48.944;9.460;2023-03-19T06:55:44;98375.06;;;11.99;72.37
48622;BME280;34421;48.944;9.460;2023-03-19T06:58:10;98373.28;;;12.12;70.99
48622;BME280;34421;48.944;9.460;2023-03-19T07:00:35;98373.34;;;12.23;71.54
48622;BME280;34421;48.944;9.460;2023-03-19T07:03:00;98376.44;;;12.39;71.67
48622;BME280;34421;48.944;9.460;2023-03-19T07:05:26;98375.91;;;12.48;71.74
48622;BME280;34421;48.944;9.460;2023-03-19T07:07:51;98383.97;;;12.60;70.94
48622;BME280;34421;48.944;9.460;2023-03-19T07:10:19;98380.31;;;12.73;70.28
48622;BME280;34421;48.944;9.460;2023-03-19T07:12:45;98383.63;;;12.87;71.22
48622;BME280;34421;48.944;9.460;2023-03-19T07:15:10;98377.16;;;12.94;69.68
48622;BME280;34421;48.944;9.460;2023-03-19T07:17:36;98372.06;;;13.05;69.81
48622;BME280;34421;48.944;9.460;2023-03-19T07:20:01;98383.13;;;13.20;69.79
48622;BME280;34421;48.944;9.460;2023-03-19T07:22:26;98386.44;;;13.34;68.66
48622;BME280;34421;48.944;9.460;2023-03-19T07:24:51;98390.09;;;13.51;67.76
48622;BME280;34421;48.944;9.460;2023-03-19T07:27:17;98391.84;;;13.69;67.78
48622;BME280;34421;48.944;9.460;2023-03-19T07:29:42;98393.34;;;13.88;66.62
48622;BME280;34421;48.944;9.460;2023-03-19T07:32:08;98397.41;;;14.14;65.85
48622;BME280;34421;48.944;9.460;2023-03-19T07:34:33;98407.84;;;14.40;65.16
48622;BME280;34421;48.944;9.460;2023-03-19T07:36:59;98400.13;;;14.67;63.95
48622;BME280;34421;48.944;9.460;2023-03-19T07:39:24;98401.97;;;14.95;63.05
48622;BME280;34421;48.944;9.460;2023-03-19T07:41:49;98404.38;;;15.25;61.76
48622;BME280;34421;48.944;9.460;2023-03-19T07:44:14;98401.13;;;15.40;60.73
48622;BME280;34421;48.944;9.460;2023-03-19T07:46:40;98406.75;;;15.55;60.43
48622;BME280;34421;48.944;9.460;2023-03-19T07:49:05;98413.44;;;15.69;59.12
48622;BME280;34421;48.944;9.460;2023-03-19T07:51:31;98406.00;;;16.10;58.08
48622;BME280;34421;48.944;9.460;2023-03-19T07:53:57;98414.09;;;16.54;56.23
48622;BME280;34421;48.944;9.460;2023-03-19T07:56:22;98413.19;;;17.15;55.45
48622;BME280;34421;48.944;9.460;2023-03-19T07:58:47;98412.28;;;17.68;52.56
48622;BME280;34421;48.944;9.460;2023-03-19T08:01:12;98407.97;;;18.05;52.22
48622;BME280;34421;48.944;9.460;2023-03-19T08:03:37;98410.19;;;18.13;50.97
48622;BME280;34421;48.944;9.460;2023-03-19T08:06:03;98406.81;;;17.90;51.00
48622;BME280;34421;48.944;9.460;2023-03-19T08:08:29;98407.19;;;17.72;51.35
48622;BME280;34421;48.944;9.460;2023-03-19T08:10:54;98408.75;;;17.63;50.59
48622;BME280;34421;48.944;9.460;2023-03-19T08:13:20;98415.63;;;17.48;51.41
48622;BME280;34421;48.944;9.460;2023-03-19T08:15:45;98417.13;;;17.34;51.01
48622;BME280;34421;48.944;9.460;2023-03-19T08:18:10;98412.72;;;17.23;52.14
48622;BME280;34421;48.944;9.460;2023-03-19T08:20:36;98414.25;;;17.14;52.38
48622;BME280;34421;48.944;9.460;2023-03-19T08:23:01;98412.31;;;17.09;51.45
48622;BME280;34421;48.944;9.460;2023-03-19T08:25:26;98414.25;;;17.14;51.26
48622;BME280;34421;48.944;9.460;2023-03-19T08:27:56;98414.78;;;17.16;50.97
48622;BME280;34421;48.944;9.460;2023-03-19T08:30:21;98418.81;;;17.40;51.28
48622;BME280;34421;48.944;9.460;2023-03-19T08:32:46;98415.25;;;17.67;49.96
48622;BME280;34421;48.944;9.460;2023-03-19T08:35:13;98419.94;;;17.82;50.11
48622;BME280;34421;48.944;9.460;2023-03-19T08:37:38;98420.78;;;17.87;50.33
48622;BME280;34421;48.944;9.460;2023-03-19T08:40:03;98416.50;;;17.86;49.87
48622;BME280;34421;48.944;9.460;2023-03-19T08:42:29;98421.53;;;17.77;48.74
48622;BME280;34421;48.944;9.460;2023-03-19T08:44:54;98414.56;;;17.49;47.94
48622;BME280;34421;48.944;9.460;2023-03-19T08:47:19;98418.31;;;17.48;49.53
48622;BME280;34421;48.944;9.460;2023-03-19T08:49:48;98417.84;;;17.57;49.48
48622;BME280;34421;48.944;9.460;2023-03-19T08:52:13;98425.88;;;17.51;48.31
48622;BME280;34421;48.944;9.460;2023-03-19T08:54:38;98426.66;;;17.47;49.53
48622;BME280;34421;48.944;9.460;2023-03-19T08:57:03;98427.03;;;17.61;49.12
48622;BME280;34421;48.944;9.460;2023-03-19T08:59:29;98419.13;;;17.81;48.97
48622;BME280;34421;48.944;9.460;2023-03-19T09:01:54;98424.72;;;18.07;48.59
48622;BME280;34421;48.944;9.460;2023-03-19T09:04:20;98430.19;;;18.22;47.59
48622;BME280;34421;48.944;9.460;2023-03-19T09:06:46;98430.84;;;18.50;47.60
48622;BME280;34421;48.944;9.460;2023-03-19T09:09:15;98429.72;;;18.40;46.65
48622;BME280;34421;48.944;9.460;2023-03-19T09:11:40;98427.00;;;18.30;46.49
48622;BME280;34421;48.944;9.460;2023-03-19T09:14:05;98433.75;;;17.90;46.70
48622;BME280;34421;48.944;9.460;2023-03-19T09:16:31;98433.94;;;17.51;47.68
48622;BME280;34421;48.944;9.460;2023-03-19T09:18:56;98435.28;;;17.49;47.86
48622;BME280;34421;48.944;9.460;2023-03-19T09:21:22;98428.16;;;17.65;48.48
48622;BME280;34421;48.944;9.460;2023-03-19T09:23:47;98429.38;;;17.79;47.45
48622;BME280;34421;48.944;9.460;2023-03-19T09:26:12;98436.47;;;17.95;46.98
48622;BME280;34421;48.944;9.460;2023-03-19T09:28:37;98424.38;;;18.45;47.01
48622;BME280;34421;48.944;9.460;2023-03-19T09:31:02;98435.72;;;19.26;45.63
48622;BME280;34421;48.944;9.460;2023-03-19T09:33:31;98433.81;;;20.23;43.47
48622;BME280;34421;48.944;9.460;2023-03-19T09:35:56;98428.75;;;21.31;40.96
48622;BME280;34421;48.944;9.460;2023-03-19T09:38:21;98435.06;;;22.48;39.32
48622;BME280;34421;48.944;9.460;2023-03-19T09:40:47;98436.44;;;24.30;37.08
48622;BME280;34421;48.944;9.460;2023-03-19T09:45:51;98434.31;;;27.11;31.80
48622;BME280;34421;48.944;9.460;2023-03-19T09:48:25;98445.31;;;29.04;29.09
48622;BME280;34421;48.944;9.460;2023-03-19T09:50:55;98441.13;;;28.30;28.12
48622;BME280;34421;48.944;9.460;2023-03-19T09:53:41;98440.00;;;28.99;28.39
48622;BME280;34421;48.944;9.460;2023-03-19T09:56:10;98422.94;;;29.77;27.40
48622;BME280;34421;48.944;9.460;2023-03-19T09:58:38;98429.78;;;31.39;25.29
48622;BME280;34421;48.944;9.460;2023-03-19T10:01:03;98419.72;;;33.95;23.03
48622;BME280;34421;48.944;9.460;2023-03-19T10:14:06;98414.41;;;40.41;15.39
48622;BME280;34421;48.944;9.460;2023-03-19T10:16:27;98418.06;;;41.17;14.85
48622;BME280;34421;48.944;9.460;2023-03-19T10:18:54;98407.81;;;41.38;14.64
48622;BME280;34421;48.944;9.460;2023-03-19T10:21:24;98411.56;;;42.16;13.95
48622;BME280;34421;48.944;9.460;2023-03-19T10:23:56;98403.31;;;42.05;12.82
48622;BME280;34421;48.944;9.460;2023-03-19T10:26:28;98408.34;;;41.91;12.64
48622;BME280;34421;48.944;9.460;2023-03-19T10:31:26;98398.25;;;41.97;12.43
48622;BME280;34421;48.944;9.460;2023-03-19T10:36:49;98393.31;;;42.55;11.83
48622;BME280;34421;48.944;9.460;2023-03-19T10:39:21;98389.44;;;42.72;11.62
48622;BME280;34421;48.944;9.460;2023-03-19T10:44:42;98383.44;;;42.23;11.44
48622;BME280;34421;48.944;9.460;2023-03-19T10:47:11;98374.03;;;42.14;11.63
48622;BME280;34421;48.944;9.460;2023-03-19T10:49:36;98370.03;;;42.38;11.47
48622;BME280;34421;48.944;9.460;2023-03-19T10:52:02;98381.03;;;42.25;10.97
48622;BME280;34421;48.944;9.460;2023-03-19T10:54:27;98372.53;;;42.32;11.01
48622;BME280;34421;48.944;9.460;2023-03-19T10:56:55;98372.19;;;42.03;11.16
48622;BME280;34421;48.944;9.460;2023-03-19T11:01:49;98366.75;;;39.65;11.90
48622;BME280;34421;48.944;9.460;2023-03-19T11:04:20;98364.69;;;39.80;11.47
48622;BME280;34421;48.944;9.460;2023-03-19T11:06:52;98361.28;;;39.48;11.40
48622;BME280;34421;48.944;9.460;2023-03-19T11:09:27;98362.19;;;39.19;12.04
48622;BME280;34421;48.944;9.460;2023-03-19T11:12:05;98369.28;;;39.35;12.03
48622;BME280;34421;48.944;9.460;2023-03-19T11:14:37;98362.34;;;38.51;12.53
48622;BME280;34421;48.944;9.460;2023-03-19T11:17:20;98360.00;;;38.28;12.62
48622;BME280;34421;48.944;9.460;2023-03-19T11:19:52;98364.69;;;37.67;12.94
48622;BME280;34421;48.944;9.460;2023-03-19T11:22:31;98362.66;;;36.66;13.92
48622;BME280;34421;48.944;9.460;2023-03-19T11:25:01;98365.19;;;35.93;14.39
48622;BME280;34421;48.944;9.460;2023-03-19T11:27:31;98360.97;;;35.65;14.59
48622;BME280;34421;48.944;9.460;2023-03-19T11:29:58;98353.66;;;35.16;14.51
48622;BME280;34421;48.944;9.460;2023-03-19T11:34:53;98353.34;;;33.49;16.78
48622;BME280;34421;48.944;9.460;2023-03-19T11:37:30;98347.94;;;33.53;16.33
48622;BME280;34421;48.944;9.460;2023-03-19T11:42:51;98344.34;;;32.08;17.47
48622;BME280;34421;48.944;9.460;2023-03-19T11:55:39;98341.41;;;29.11;21.58
48622;BME280;34421;48.944;9.460;2023-03-19T12:00:42;98340.31;;;28.02;22.46
48622;BME280;34421;48.944;9.460;2023-03-19T12:05:45;98348.13;;;27.39;23.29
48622;BME280;34421;48.944;9.460;2023-03-19T12:10:52;98329.81;;;26.79;24.75
48622;BME280;34421;48.944;9.460;2023-03-19T12:28:32;98313.56;;;25.14;26.78
48622;BME280;34421;48.944;9.460;2023-03-19T12:35:54;98315.19;;;24.65;27.61
48622;BME280;34421;48.944;9.460;2023-03-19T12:43:24;98297.78;;;24.39;27.65
48622;BME280;34421;48.944;9.460;2023-03-19T12:45:54;98313.03;;;23.98;27.93
48622;BME280;34421;48.944;9.460;2023-03-19T12:48:26;98307.47;;;24.03;27.75
48622;BME280;34421;48.944;9.460;2023-03-19T12:50:55;98300.75;;;24.01;27.49
48622;BME280;34421;48.944;9.460;2023-03-19T12:53:25;98302.38;;;24.02;27.62
48622;BME280;34421;48.944;9.460;2023-03-19T12:55:52;98302.06;;;23.90;27.96
48622;BME280;34421;48.944;9.460;2023-03-19T13:00:59;98312.03;;;23.80;28.04
48622;BME280;34421;48.944;9.460;2023-03-19T13:04:17;98301.03;;;23.85;27.52
48622;BME280;34421;48.944;9.460;2023-03-19T13:09:04;98300.34;;;23.94;27.58
48622;BME280;34421;48.944;9.460;2023-03-19T13:21:48;98297.50;;;23.25;28.31
48622;BME280;34421;48.944;9.460;2023-03-19T13:24:34;98293.75;;;23.20;29.08
48622;BME280;34421;48.944;9.460;2023-03-19T13:27:01;98301.75;;;22.93;30.03
48622;BME280;34421;48.944;9.460;2023-03-19T13:29:27;98300.25;;;22.68;30.75
48622;BME280;34421;48.944;9.460;2023-03-19T13:31:58;98301.16;;;22.20;31.06
48622;BME280;34421;48.944;9.460;2023-03-19T13:34:25;98301.69;;;21.45;32.86
48622;BME280;34421;48.944;9.460;2023-03-19T13:36:53;98305.16;;;20.77;35.62
48622;BME280;34421;48.944;9.460;2023-03-19T13:39:26;98301.44;;;20.08;37.10
48622;BME280;34421;48.944;9.460;2023-03-19T13:41:56;98298.31;;;19.50;38.54
48622;BME280;34421;48.944;9.460;2023-03-19T13:44:25;98309.66;;;19.11;39.49
48622;BME280;34421;48.944;9.460;2023-03-19T13:46:52;98310.19;;;18.87;40.92
48622;BME280;34421;48.944;9.460;2023-03-19T13:51:57;98321.66;;;18.42;43.22
48622;BME280;34421;48.944;9.460;2023-03-19T13:54:36;98325.63;;;18.19;45.72
48622;BME280;34421;48.944;9.460;2023-03-19T13:57:15;98322.19;;;17.81;46.50
48622;BME280;34421;48.944;9.460;2023-03-19T13:59:42;98337.38;;;17.55;48.51
48622;BME280;34421;48.944;9.460;2023-03-19T14:04:39;98357.19;;;17.12;49.96
48622;BME280;34421;48.944;9.460;2023-03-19T14:07:26;98364.91;;;16.76;50.02
48622;BME280;34421;48.944;9.460;2023-03-19T14:17:15;98360.47;;;16.21;53.86
48622;BME280;34421;48.944;9.460;2023-03-19T14:19:43;98356.78;;;16.05;53.93
48622;BME280;34421;48.944;9.460;2023-03-19T14:22:09;98355.47;;;16.07;52.98
48622;BME280;34421;48.944;9.460;2023-03-19T14:24:53;98349.72;;;16.21;55.24
48622;BME280;34421;48.944;9.460;2023-03-19T14:27:26;98336.84;;;16.45;54.03
48622;BME280;34421;48.944;9.460;2023-03-19T14:29:54;98329.25;;;16.85;54.06
48622;BME280;34421;48.944;9.460;2023-03-19T14:32:21;98319.25;;;17.13;52.77
48622;BME280;34421;48.944;9.460;2023-03-19T14:34:47;98322.50;;;17.47;52.33
48622;BME280;34421;48.944;9.460;2023-03-19T14:37:21;98312.97;;;17.72;51.81
48622;BME280;34421;48.944;9.460;2023-03-19T14:42:33;98314.56;;;18.15;52.66
48622;BME280;34421;48.944;9.460;2023-03-19T14:53:00;98322.44;;;18.37;52.87